GMMC/CAS METAR and TAF weather

Enter ICAO airport designator
Station Type Date Time Source
GMMC METAR 2022/05/23 15:00 UTC NOAA

GMMC 231500Z 04008KT 9999 FEW016 22/16 Q1013


Station Type Date Time Source
GMMC Decoded METAR 2022/05/23 15:00 UTC NOAA

Casablanca, Morocco (GMMC) 33-34N 007-40W 62M
May 23, 2022 - 11:00 AM EDT / 2022.05.23 1500 UTC
Wind: from the NE (040 degrees) at 9 MPH (8 KT):0
Visibility: greater than 7 mile(s):0
Sky conditions: mostly clear
Temperature: 71 F (22 C)
Dew Point: 60 F (16 C)
Relative Humidity: 68%
Pressure (altimeter): 29.91 in. Hg (1013 hPa)
ob: GMMC 231500Z 04008KT 9999 FEW016 22/16 Q1013
cycle: 15

Station Type Date Time Source
GMMC TAF 2016/05/22 17:00 UTC NOAA

FTMC31 GMMC 221700 RRA TAF LPPT 221700Z 2218/2324 34013KT CAVOK
BECMG 2221/2224 34007KT
BECMG 2310/2312 VRB03KT

Example: see airport list